sensor_id;sensor_type;location;lat;lon;timestamp;pressure;altitude;pressure_sealevel;temperature;humidity
53011;BME280;42803;55.762;38.084;2023-03-24T00:02:15;98317.56;;;6.26;94.26
53011;BME280;42803;55.762;38.084;2023-03-24T00:04:46;98309.53;;;6.23;94.12
53011;BME280;42803;55.762;38.084;2023-03-24T00:07:16;98312.91;;;6.22;94.87
53011;BME280;42803;55.762;38.084;2023-03-24T00:09:46;98305.34;;;6.25;94.29
53011;BME280;42803;55.762;38.084;2023-03-24T00:12:15;98296.81;;;6.26;94.21
53011;BME280;42803;55.762;38.084;2023-03-24T00:14:46;98291.50;;;6.24;94.70
53011;BME280;42803;55.762;38.084;2023-03-24T00:17:16;98284.63;;;6.25;95.11
53011;BME280;42803;55.762;38.084;2023-03-24T00:19:45;98274.72;;;6.19;94.94
53011;BME280;42803;55.762;38.084;2023-03-24T00:22:14;98275.53;;;6.18;95.53
53011;BME280;42803;55.762;38.084;2023-03-24T00:24:43;98266.16;;;6.20;95.82
53011;BME280;42803;55.762;38.084;2023-03-24T00:27:13;98257.59;;;6.21;96.01
53011;BME280;42803;55.762;38.084;2023-03-24T00:29:44;98267.06;;;6.21;95.58
53011;BME280;42803;55.762;38.084;2023-03-24T00:32:14;98264.81;;;6.25;95.72
53011;BME280;42803;55.762;38.084;2023-03-24T00:34:44;98261.44;;;6.26;95.88
53011;BME280;42803;55.762;38.084;2023-03-24T00:37:13;98251.28;;;6.29;95.09
53011;BME280;42803;55.762;38.084;2023-03-24T00:39:42;98259.19;;;6.31;94.93
53011;BME280;42803;55.762;38.084;2023-03-24T00:42:12;98259.19;;;6.31;95.26
53011;BME280;42803;55.762;38.084;2023-03-24T00:44:43;98246.09;;;6.29;95.55
53011;BME280;42803;55.762;38.084;2023-03-24T00:47:14;98255.78;;;6.32;95.54
53011;BME280;42803;55.762;38.084;2023-03-24T00:49:44;98247.91;;;6.30;95.79
53011;BME280;42803;55.762;38.084;2023-03-24T00:52:15;98245.00;;;6.26;95.93
53011;BME280;42803;55.762;38.084;2023-03-24T00:54:44;98237.09;;;6.24;95.86
53011;BME280;42803;55.762;38.084;2023-03-24T00:57:15;98243.41;;;6.28;96.17
53011;BME280;42803;55.762;38.084;2023-03-24T00:59:48;98236.84;;;6.33;95.31
53011;BME280;42803;55.762;38.084;2023-03-24T01:02:21;98231.47;;;6.30;95.47
53011;BME280;42803;55.762;38.084;2023-03-24T01:04:52;98230.53;;;6.29;95.62
53011;BME280;42803;55.762;38.084;2023-03-24T01:07:23;98233.94;;;6.28;95.93
53011;BME280;42803;55.762;38.084;2023-03-24T01:09:52;98228.75;;;6.28;96.07
53011;BME280;42803;55.762;38.084;2023-03-24T01:12:26;98216.81;;;6.30;95.77
53011;BME280;42803;55.762;38.084;2023-03-24T01:14:56;98223.81;;;6.31;96.01
53011;BME280;42803;55.762;38.084;2023-03-24T01:17:27;98224.94;;;6.35;95.72
53011;BME280;42803;55.762;38.084;2023-03-24T01:19:57;98218.53;;;6.30;95.94
53011;BME280;42803;55.762;38.084;2023-03-24T01:22:28;98230.13;;;6.23;96.59
53011;BME280;42803;55.762;38.084;2023-03-24T01:24:57;98218.63;;;6.20;96.85
53011;BME280;42803;55.762;38.084;2023-03-24T01:27:27;98212.41;;;6.18;96.93
53011;BME280;42803;55.762;38.084;2023-03-24T01:29:58;98215.72;;;6.15;97.32
53011;BME280;42803;55.762;38.084;2023-03-24T01:32:29;98216.38;;;6.13;97.77
53011;BME280;42803;55.762;38.084;2023-03-24T01:34:58;98218.88;;;6.11;98.20
53011;BME280;42803;55.762;38.084;2023-03-24T01:37:29;98240.59;;;6.13;98.50
53011;BME280;42803;55.762;38.084;2023-03-24T01:39:58;98223.81;;;6.20;98.69
53011;BME280;42803;55.762;38.084;2023-03-24T01:42:28;98230.53;;;6.29;97.97
53011;BME280;42803;55.762;38.084;2023-03-24T01:45:00;98216.03;;;6.31;97.77
53011;BME280;42803;55.762;38.084;2023-03-24T01:47:31;98220.53;;;6.34;97.75
53011;BME280;42803;55.762;38.084;2023-03-24T01:50:02;98215.56;;;6.37;97.50
53011;BME280;42803;55.762;38.084;2023-03-24T01:52:34;98212.75;;;6.46;96.75
53011;BME280;42803;55.762;38.084;2023-03-24T01:55:06;98217.22;;;6.48;96.23
53011;BME280;42803;55.762;38.084;2023-03-24T01:57:39;98203.50;;;6.49;96.23
53011;BME280;42803;55.762;38.084;2023-03-24T02:00:11;98205.41;;;6.52;96.33
53011;BME280;42803;55.762;38.084;2023-03-24T02:03:08;98205.41;;;6.52;96.22
53011;BME280;42803;55.762;38.084;2023-03-24T02:05:47;98193.91;;;6.48;96.04
53011;BME280;42803;55.762;38.084;2023-03-24T02:08:20;98196.31;;;6.45;96.84
53011;BME280;42803;55.762;38.084;2023-03-24T02:10:52;98187.28;;;6.40;97.63
53011;BME280;42803;55.762;38.084;2023-03-24T02:13:32;98188.88;;;6.38;98.32
53011;BME280;42803;55.762;38.084;2023-03-24T02:16:23;98191.69;;;6.41;98.55
53011;BME280;42803;55.762;38.084;2023-03-24T02:19:27;98184.59;;;6.39;98.56
53011;BME280;42803;55.762;38.084;2023-03-24T02:25:39;98170.41;;;6.22;98.74
53011;BME280;42803;55.762;38.084;2023-03-24T02:28:27;98168.75;;;6.10;100.00
53011;BME280;42803;55.762;38.084;2023-03-24T02:31:17;98177.28;;;5.98;100.00
53011;BME280;42803;55.762;38.084;2023-03-24T02:34:13;98170.53;;;5.88;100.00
53011;BME280;42803;55.762;38.084;2023-03-24T02:37:32;98174.69;;;5.86;100.00
53011;BME280;42803;55.762;38.084;2023-03-24T02:40:23;98164.97;;;5.83;100.00
53011;BME280;42803;55.762;38.084;2023-03-24T02:43:15;98165.69;;;5.81;100.00
53011;BME280;42803;55.762;38.084;2023-03-24T02:45:53;98165.53;;;5.79;100.00
53011;BME280;42803;55.762;38.084;2023-03-24T02:48:32;98156.22;;;5.81;100.00
53011;BME280;42803;55.762;38.084;2023-03-24T02:51:09;98151.03;;;5.81;100.00
53011;BME280;42803;55.762;38.084;2023-03-24T02:53:52;98147.00;;;5.85;100.00
53011;BME280;42803;55.762;38.084;2023-03-24T02:56:34;98145.88;;;5.93;100.00
53011;BME280;42803;55.762;38.084;2023-03-24T02:59:33;98141.25;;;6.01;100.00
53011;BME280;42803;55.762;38.084;2023-03-24T03:02:18;98137.31;;;6.06;100.00
53011;BME280;42803;55.762;38.084;2023-03-24T03:04:56;98130.44;;;6.06;100.00
53011;BME280;42803;55.762;38.084;2023-03-24T03:07:29;98120.88;;;6.05;100.00
53011;BME280;42803;55.762;38.084;2023-03-24T03:10:02;98119.88;;;6.03;100.00
53011;BME280;42803;55.762;38.084;2023-03-24T03:12:36;98113.81;;;6.03;100.00
53011;BME280;42803;55.762;38.084;2023-03-24T03:15:09;98116.50;;;6.04;100.00
53011;BME280;42803;55.762;38.084;2023-03-24T03:17:41;98119.31;;;6.07;100.00
53011;BME280;42803;55.762;38.084;2023-03-24T03:20:20;98115.91;;;6.08;100.00
53011;BME280;42803;55.762;38.084;2023-03-24T03:22:54;98111.63;;;6.09;100.00
53011;BME280;42803;55.762;38.084;2023-03-24T03:25:27;98110.38;;;6.16;100.00
53011;BME280;42803;55.762;38.084;2023-03-24T03:28:00;98107.13;;;6.18;100.00
53011;BME280;42803;55.762;38.084;2023-03-24T03:30:34;98103.03;;;6.22;100.00
53011;BME280;42803;55.762;38.084;2023-03-24T03:33:07;98104.06;;;6.24;100.00
53011;BME280;42803;55.762;38.084;2023-03-24T03:35:40;98104.84;;;6.23;100.00
53011;BME280;42803;55.762;38.084;2023-03-24T03:38:16;98107.88;;;6.29;100.00
53011;BME280;42803;55.762;38.084;2023-03-24T03:40:51;98100.31;;;6.32;100.00
53011;BME280;42803;55.762;38.084;2023-03-24T03:43:29;98101.53;;;6.37;100.00
53011;BME280;42803;55.762;38.084;2023-03-24T03:46:00;98098.16;;;6.38;100.00
53011;BME280;42803;55.762;38.084;2023-03-24T03:48:34;98100.50;;;6.47;100.00
53011;BME280;42803;55.762;38.084;2023-03-24T03:51:04;98087.84;;;6.51;100.00
53011;BME280;42803;55.762;38.084;2023-03-24T03:53:49;98082.88;;;6.54;100.00
53011;BME280;42803;55.762;38.084;2023-03-24T03:56:21;98092.69;;;6.58;100.00
53011;BME280;42803;55.762;38.084;2023-03-24T03:59:29;98084.75;;;6.69;99.81
53011;BME280;42803;55.762;38.084;2023-03-24T04:02:11;98090.34;;;6.75;99.49
53011;BME280;42803;55.762;38.084;2023-03-24T04:05:01;98087.97;;;6.78;99.11
53011;BME280;42803;55.762;38.084;2023-03-24T04:07:51;98090.78;;;6.81;98.89
53011;BME280;42803;55.762;38.084;2023-03-24T04:14:59;98086.31;;;6.92;98.08
53011;BME280;42803;55.762;38.084;2023-03-24T04:18:21;98082.25;;;6.95;98.23
53011;BME280;42803;55.762;38.084;2023-03-24T04:21:09;98085.31;;;6.90;98.64
53011;BME280;42803;55.762;38.084;2023-03-24T04:23:53;98083.44;;;6.87;99.23
53011;BME280;42803;55.762;38.084;2023-03-24T04:26:33;98083.59;;;6.90;99.76
53011;BME280;42803;55.762;38.084;2023-03-24T04:29:13;98079.66;;;6.95;99.54
53011;BME280;42803;55.762;38.084;2023-03-24T04:31:51;98082.25;;;6.95;99.60
53011;BME280;42803;55.762;38.084;2023-03-24T04:34:25;98074.09;;;7.02;99.47
53011;BME280;42803;55.762;38.084;2023-03-24T04:37:03;98067.50;;;7.07;99.35
53011;BME280;42803;55.762;38.084;2023-03-24T04:39:41;98058.91;;;7.08;99.53
53011;BME280;42803;55.762;38.084;2023-03-24T04:42:18;98063.00;;;7.05;100.00
53011;BME280;42803;55.762;38.084;2023-03-24T04:44:49;98068.47;;;6.96;100.00
53011;BME280;42803;55.762;38.084;2023-03-24T04:47:42;98072.03;;;6.85;100.00
53011;BME280;42803;55.762;38.084;2023-03-24T04:50:36;98066.81;;;6.72;100.00
53011;BME280;42803;55.762;38.084;2023-03-24T04:53:11;98060.00;;;6.61;100.00
53011;BME280;42803;55.762;38.084;2023-03-24T04:55:56;98070.03;;;6.56;100.00
53011;BME280;42803;55.762;38.084;2023-03-24T04:58:51;98065.22;;;6.49;100.00
53011;BME280;42803;55.762;38.084;2023-03-24T05:01:21;98071.19;;;6.48;100.00
53011;BME280;42803;55.762;38.084;2023-03-24T05:04:11;98070.88;;;6.43;100.00
53011;BME280;42803;55.762;38.084;2023-03-24T05:06:40;98068.63;;;6.36;100.00
53011;BME280;42803;55.762;38.084;2023-03-24T05:09:10;98062.16;;;6.18;100.00
53011;BME280;42803;55.762;38.084;2023-03-24T05:11:39;98072.56;;;6.06;100.00
53011;BME280;42803;55.762;38.084;2023-03-24T05:14:08;98072.56;;;5.94;100.00
53011;BME280;42803;55.762;38.084;2023-03-24T05:16:37;98074.03;;;5.79;100.00
53011;BME280;42803;55.762;38.084;2023-03-24T05:19:07;98076.97;;;5.72;100.00
53011;BME280;42803;55.762;38.084;2023-03-24T05:21:38;98073.72;;;5.62;100.00
53011;BME280;42803;55.762;38.084;2023-03-24T05:24:07;98083.84;;;5.59;100.00
53011;BME280;42803;55.762;38.084;2023-03-24T05:26:36;98081.16;;;5.58;100.00
53011;BME280;42803;55.762;38.084;2023-03-24T05:29:15;98081.81;;;5.55;100.00
53011;BME280;42803;55.762;38.084;2023-03-24T05:31:45;98089.59;;;5.55;100.00
53011;BME280;42803;55.762;38.084;2023-03-24T05:34:20;98086.19;;;5.56;100.00
53011;BME280;42803;55.762;38.084;2023-03-24T05:37:20;98087.22;;;5.58;100.00
53011;BME280;42803;55.762;38.084;2023-03-24T05:39:51;98090.72;;;5.59;100.00
53011;BME280;42803;55.762;38.084;2023-03-24T05:42:34;98086.66;;;5.62;100.00
53011;BME280;42803;55.762;38.084;2023-03-24T05:45:05;98085.06;;;5.65;100.00
53011;BME280;42803;55.762;38.084;2023-03-24T05:47:35;98085.63;;;5.60;100.00
53011;BME280;42803;55.762;38.084;2023-03-24T05:50:08;98078.81;;;5.61;100.00
53011;BME280;42803;55.762;38.084;2023-03-24T05:52:38;98083.50;;;5.67;100.00
53011;BME280;42803;55.762;38.084;2023-03-24T05:55:28;98090.72;;;5.71;100.00
53011;BME280;42803;55.762;38.084;2023-03-24T05:58:08;98085.28;;;5.68;100.00
53011;BME280;42803;55.762;38.084;2023-03-24T06:00:48;98084.84;;;5.73;100.00
53011;BME280;42803;55.762;38.084;2023-03-24T06:03:29;98083.41;;;5.77;100.00
53011;BME280;42803;55.762;38.084;2023-03-24T06:06:08;98079.91;;;5.76;100.00
53011;BME280;42803;55.762;38.084;2023-03-24T06:08:43;98082.81;;;5.81;100.00
53011;BME280;42803;55.762;38.084;2023-03-24T06:11:17;98077.97;;;5.85;100.00
53011;BME280;42803;55.762;38.084;2023-03-24T06:13:54;98080.78;;;5.89;100.00
53011;BME280;42803;55.762;38.084;2023-03-24T06:16:28;98077.31;;;5.88;100.00
53011;BME280;42803;55.762;38.084;2023-03-24T06:19:03;98083.75;;;5.93;100.00
53011;BME280;42803;55.762;38.084;2023-03-24T06:21:59;98076.63;;;6.02;100.00
53011;BME280;42803;55.762;38.084;2023-03-24T06:24:35;98074.03;;;6.02;100.00
53011;BME280;42803;55.762;38.084;2023-03-24T06:27:08;98082.03;;;6.05;100.00
53011;BME280;42803;55.762;38.084;2023-03-24T06:29:38;98075.38;;;6.09;100.00
53011;BME280;42803;55.762;38.084;2023-03-24T06:32:09;98077.50;;;6.15;100.00
53011;BME280;42803;55.762;38.084;2023-03-24T06:34:41;98081.91;;;6.16;100.00
53011;BME280;42803;55.762;38.084;2023-03-24T06:37:21;98084.13;;;6.23;100.00
53011;BME280;42803;55.762;38.084;2023-03-24T06:39:52;98076.44;;;6.24;100.00
53011;BME280;42803;55.762;38.084;2023-03-24T06:42:24;98080.97;;;6.27;100.00
53011;BME280;42803;55.762;38.084;2023-03-24T06:44:54;98077.88;;;6.32;100.00
53011;BME280;42803;55.762;38.084;2023-03-24T06:47:24;98077.34;;;6.25;100.00
53011;BME280;42803;55.762;38.084;2023-03-24T06:49:54;98075.56;;;6.24;100.00
53011;BME280;42803;55.762;38.084;2023-03-24T06:52:23;98073.06;;;6.25;100.00
53011;BME280;42803;55.762;38.084;2023-03-24T06:54:57;98079.63;;;6.20;100.00
53011;BME280;42803;55.762;38.084;2023-03-24T06:57:29;98074.00;;;6.14;100.00
53011;BME280;42803;55.762;38.084;2023-03-24T07:00:24;98076.41;;;6.11;100.00
53011;BME280;42803;55.762;38.084;2023-03-24T07:03:06;98078.50;;;6.17;100.00
53011;BME280;42803;55.762;38.084;2023-03-24T07:05:38;98070.38;;;6.24;100.00
53011;BME280;42803;55.762;38.084;2023-03-24T07:08:08;98074.31;;;6.30;100.00
53011;BME280;42803;55.762;38.084;2023-03-24T07:10:47;98073.56;;;6.45;100.00
53011;BME280;42803;55.762;38.084;2023-03-24T07:13:16;98073.78;;;6.48;100.00
53011;BME280;42803;55.762;38.084;2023-03-24T07:15:46;98070.50;;;6.50;100.00
53011;BME280;42803;55.762;38.084;2023-03-24T07:18:15;98063.19;;;6.56;100.00
53011;BME280;42803;55.762;38.084;2023-03-24T07:20:53;98067.56;;;6.57;100.00
53011;BME280;42803;55.762;38.084;2023-03-24T07:23:23;98063.72;;;6.52;100.00
53011;BME280;42803;55.762;38.084;2023-03-24T07:26:18;98057.50;;;6.62;100.00
53011;BME280;42803;55.762;38.084;2023-03-24T07:28:47;98057.13;;;6.69;100.00
53011;BME280;42803;55.762;38.084;2023-03-24T07:31:43;98060.63;;;6.70;100.00
53011;BME280;42803;55.762;38.084;2023-03-24T07:34:13;98061.41;;;6.69;100.00
53011;BME280;42803;55.762;38.084;2023-03-24T07:36:43;98063.16;;;6.81;100.00
53011;BME280;42803;55.762;38.084;2023-03-24T07:39:15;98057.66;;;6.77;100.00
53011;BME280;42803;55.762;38.084;2023-03-24T07:41:46;98063.44;;;6.73;100.00
53011;BME280;42803;55.762;38.084;2023-03-24T07:44:27;98064.00;;;6.69;100.00
53011;BME280;42803;55.762;38.084;2023-03-24T07:46:59;98071.13;;;6.59;100.00
53011;BME280;42803;55.762;38.084;2023-03-24T07:49:29;98068.97;;;6.66;100.00
53011;BME280;42803;55.762;38.084;2023-03-24T07:52:05;98067.28;;;6.66;100.00
53011;BME280;42803;55.762;38.084;2023-03-24T07:54:42;98069.78;;;6.65;100.00
53011;BME280;42803;55.762;38.084;2023-03-24T07:57:32;98070.47;;;6.62;100.00
53011;BME280;42803;55.762;38.084;2023-03-24T08:00:08;98072.25;;;6.63;100.00
53011;BME280;42803;55.762;38.084;2023-03-24T08:02:51;98073.63;;;6.58;100.00
53011;BME280;42803;55.762;38.084;2023-03-24T08:05:40;98082.84;;;6.66;100.00
53011;BME280;42803;55.762;38.084;2023-03-24T08:08:24;98080.56;;;6.71;100.00
53011;BME280;42803;55.762;38.084;2023-03-24T08:10:53;98085.53;;;6.68;100.00
53011;BME280;42803;55.762;38.084;2023-03-24T08:13:24;98092.22;;;6.64;100.00
53011;BME280;42803;55.762;38.084;2023-03-24T08:15:53;98095.13;;;6.69;100.00
53011;BME280;42803;55.762;38.084;2023-03-24T08:18:23;98087.56;;;6.72;100.00
53011;BME280;42803;55.762;38.084;2023-03-24T08:20:57;98092.63;;;6.95;100.00
53011;BME280;42803;55.762;38.084;2023-03-24T08:23:29;98091.22;;;7.00;100.00
53011;BME280;42803;55.762;38.084;2023-03-24T08:25:58;98099.75;;;7.11;100.00
53011;BME280;42803;55.762;38.084;2023-03-24T08:28:29;98087.69;;;7.25;100.00
53011;BME280;42803;55.762;38.084;2023-03-24T08:30:58;98093.28;;;7.31;100.00
53011;BME280;42803;55.762;38.084;2023-03-24T08:33:28;98091.91;;;7.36;100.00
53011;BME280;42803;55.762;38.084;2023-03-24T08:35:57;98088.53;;;7.37;100.00
53011;BME280;42803;55.762;38.084;2023-03-24T08:38:28;98082.69;;;7.28;100.00
53011;BME280;42803;55.762;38.084;2023-03-24T08:40:59;98080.53;;;7.34;100.00
53011;BME280;42803;55.762;38.084;2023-03-24T08:43:31;98085.72;;;7.34;100.00
53011;BME280;42803;55.762;38.084;2023-03-24T08:46:00;98075.63;;;7.39;100.00
53011;BME280;42803;55.762;38.084;2023-03-24T08:48:30;98082.75;;;7.41;100.00
53011;BME280;42803;55.762;38.084;2023-03-24T08:50:59;98087.63;;;7.37;100.00
53011;BME280;42803;55.762;38.084;2023-03-24T08:53:28;98082.63;;;7.40;100.00
53011;BME280;42803;55.762;38.084;2023-03-24T08:55:58;98086.44;;;7.45;100.00
53011;BME280;42803;55.762;38.084;2023-03-24T08:58:26;98087.25;;;7.57;100.00
53011;BME280;42803;55.762;38.084;2023-03-24T09:00:57;98090.75;;;7.71;100.00
53011;BME280;42803;55.762;38.084;2023-03-24T09:03:27;98097.00;;;7.74;100.00
53011;BME280;42803;55.762;38.084;2023-03-24T09:05:56;98096.13;;;7.74;100.00
53011;BME280;42803;55.762;38.084;2023-03-24T09:08:25;98093.53;;;7.61;100.00
53011;BME280;42803;55.762;38.084;2023-03-24T09:10:54;98098.81;;;7.62;100.00
53011;BME280;42803;55.762;38.084;2023-03-24T09:13:24;98097.13;;;7.76;100.00
53011;BME280;42803;55.762;38.084;2023-03-24T09:15:58;98103.19;;;7.90;100.00
53011;BME280;42803;55.762;38.084;2023-03-24T09:18:28;98097.72;;;7.85;100.00
53011;BME280;42803;55.762;38.084;2023-03-24T09:20:58;98094.59;;;8.04;100.00
53011;BME280;42803;55.762;38.084;2023-03-24T09:23:27;98095.41;;;8.03;100.00
53011;BME280;42803;55.762;38.084;2023-03-24T09:25:58;98096.09;;;8.00;100.00
53011;BME280;42803;55.762;38.084;2023-03-24T09:28:28;98089.22;;;8.01;100.00
53011;BME280;42803;55.762;38.084;2023-03-24T09:31:00;98098.72;;;7.87;100.00
53011;BME280;42803;55.762;38.084;2023-03-24T09:33:30;98101.94;;;7.83;100.00
53011;BME280;42803;55.762;38.084;2023-03-24T09:36:03;98100.41;;;7.73;100.00
53011;BME280;42803;55.762;38.084;2023-03-24T09:38:32;98102.72;;;7.69;100.00
53011;BME280;42803;55.762;38.084;2023-03-24T09:41:02;98103.91;;;7.61;100.00
53011;BME280;42803;55.762;38.084;2023-03-24T09:43:35;98108.00;;;7.57;100.00
53011;BME280;42803;55.762;38.084;2023-03-24T09:46:11;98111.88;;;7.50;100.00
53011;BME280;42803;55.762;38.084;2023-03-24T09:48:43;98114.78;;;7.42;100.00
53011;BME280;42803;55.762;38.084;2023-03-24T09:51:19;98117.13;;;7.64;100.00
53011;BME280;42803;55.762;38.084;2023-03-24T09:53:57;98118.09;;;7.66;100.00
53011;BME280;42803;55.762;38.084;2023-03-24T09:56:32;98126.69;;;7.78;100.00
53011;BME280;42803;55.762;38.084;2023-03-24T09:59:05;98125.53;;;7.86;100.00
53011;BME280;42803;55.762;38.084;2023-03-24T10:01:36;98124.22;;;7.79;100.00
53011;BME280;42803;55.762;38.084;2023-03-24T10:04:12;98126.91;;;7.94;100.00
53011;BME280;42803;55.762;38.084;2023-03-24T10:06:42;98122.09;;;8.00;100.00
53011;BME280;42803;55.762;38.084;2023-03-24T10:09:20;98124.31;;;7.94;100.00
53011;BME280;42803;55.762;38.084;2023-03-24T10:12:00;98127.91;;;8.10;100.00
53011;BME280;42803;55.762;38.084;2023-03-24T10:14:43;98129.16;;;8.16;100.00
53011;BME280;42803;55.762;38.084;2023-03-24T10:17:21;98123.28;;;8.32;100.00
53011;BME280;42803;55.762;38.084;2023-03-24T10:19:55;98126.25;;;8.51;100.00
53011;BME280;42803;55.762;38.084;2023-03-24T10:22:30;98125.41;;;8.66;100.00
53011;BME280;42803;55.762;38.084;2023-03-24T10:25:10;98128.72;;;8.63;100.00
53011;BME280;42803;55.762;38.084;2023-03-24T10:27:45;98122.38;;;8.45;100.00
53011;BME280;42803;55.762;38.084;2023-03-24T10:30:18;98128.88;;;8.12;100.00
53011;BME280;42803;55.762;38.084;2023-03-24T10:32:50;98140.50;;;7.90;100.00
53011;BME280;42803;55.762;38.084;2023-03-24T10:35:23;98140.28;;;7.74;100.00
53011;BME280;42803;55.762;38.084;2023-03-24T10:37:55;98147.25;;;7.62;100.00
53011;BME280;42803;55.762;38.084;2023-03-24T10:40:30;98138.75;;;7.51;100.00
53011;BME280;42803;55.762;38.084;2023-03-24T10:43:02;98149.47;;;7.55;100.00
53011;BME280;42803;55.762;38.084;2023-03-24T10:45:38;98139.84;;;7.54;100.00
53011;BME280;42803;55.762;38.084;2023-03-24T10:48:13;98135.09;;;7.61;100.00
53011;BME280;42803;55.762;38.084;2023-03-24T10:50:43;98143.69;;;7.60;100.00
53011;BME280;42803;55.762;38.084;2023-03-24T10:53:17;98139.25;;;7.58;100.00
53011;BME280;42803;55.762;38.084;2023-03-24T10:55:47;98142.16;;;7.50;100.00
53011;BME280;42803;55.762;38.084;2023-03-24T10:58:23;98140.56;;;7.65;100.00
53011;BME280;42803;55.762;38.084;2023-03-24T11:00:56;98152.47;;;7.88;100.00
53011;BME280;42803;55.762;38.084;2023-03-24T11:03:31;98155.16;;;7.90;100.00
53011;BME280;42803;55.762;38.084;2023-03-24T11:06:04;98156.69;;;7.99;100.00
53011;BME280;42803;55.762;38.084;2023-03-24T11:08:36;98160.88;;;7.84;100.00
53011;BME280;42803;55.762;38.084;2023-03-24T11:11:13;98167.06;;;7.73;100.00
53011;BME280;42803;55.762;38.084;2023-03-24T11:13:53;98160.28;;;7.75;100.00
53011;BME280;42803;55.762;38.084;2023-03-24T11:16:27;98164.06;;;7.93;100.00
53011;BME280;42803;55.762;38.084;2023-03-24T11:19:00;98164.06;;;8.06;100.00
53011;BME280;42803;55.762;38.084;2023-03-24T11:21:31;98160.75;;;8.22;100.00
53011;BME280;42803;55.762;38.084;2023-03-24T11:24:02;98169.25;;;8.46;100.00
53011;BME280;42803;55.762;38.084;2023-03-24T11:26:38;98164.00;;;8.73;100.00
53011;BME280;42803;55.762;38.084;2023-03-24T11:29:13;98166.44;;;8.98;100.00
53011;BME280;42803;55.762;38.084;2023-03-24T11:31:47;98166.03;;;9.20;100.00
53011;BME280;42803;55.762;38.084;2023-03-24T11:34:21;98166.41;;;9.26;100.00
53011;BME280;42803;55.762;38.084;2023-03-24T11:36:53;98171.78;;;9.29;100.00
53011;BME280;42803;55.762;38.084;2023-03-24T11:39:25;98172.34;;;9.38;100.00
53011;BME280;42803;55.762;38.084;2023-03-24T11:42:18;98168.22;;;9.57;100.00
53011;BME280;42803;55.762;38.084;2023-03-24T11:44:49;98161.94;;;9.97;100.00
53011;BME280;42803;55.762;38.084;2023-03-24T11:47:25;98163.91;;;10.62;100.00
53011;BME280;42803;55.762;38.084;2023-03-24T11:50:09;98164.81;;;10.79;100.00
53011;BME280;42803;55.762;38.084;2023-03-24T11:52:46;98167.59;;;10.82;100.00
53011;BME280;42803;55.762;38.084;2023-03-24T11:55:18;98162.06;;;10.92;100.00
53011;BME280;42803;55.762;38.084;2023-03-24T11:57:55;98170.38;;;10.23;100.00
53011;BME280;42803;55.762;38.084;2023-03-24T12:00:29;98165.44;;;10.13;100.00
53011;BME280;42803;55.762;38.084;2023-03-24T12:03:29;98164.94;;;10.49;100.00
53011;BME280;42803;55.762;38.084;2023-03-24T12:06:12;98168.94;;;10.28;100.00
53011;BME280;42803;55.762;38.084;2023-03-24T12:08:55;98173.63;;;10.04;100.00
53011;BME280;42803;55.762;38.084;2023-03-24T12:11:46;98181.16;;;9.99;100.00
53011;BME280;42803;55.762;38.084;2023-03-24T12:14:22;98187.44;;;10.03;100.00
53011;BME280;42803;55.762;38.084;2023-03-24T12:17:00;98187.31;;;9.85;100.00
53011;BME280;42803;55.762;38.084;2023-03-24T12:19:35;98189.09;;;9.86;100.00
53011;BME280;42803;55.762;38.084;2023-03-24T12:22:19;98193.91;;;10.10;100.00
53011;BME280;42803;55.762;38.084;2023-03-24T12:25:07;98198.75;;;10.18;100.00
53011;BME280;42803;55.762;38.084;2023-03-24T12:27:51;98206.25;;;10.12;100.00
53011;BME280;42803;55.762;38.084;2023-03-24T12:30:28;98201.66;;;10.08;100.00
53011;BME280;42803;55.762;38.084;2023-03-24T12:33:09;98205.81;;;10.05;100.00
53011;BME280;42803;55.762;38.084;2023-03-24T12:35:55;98204.81;;;9.73;99.99
53011;BME280;42803;55.762;38.084;2023-03-24T12:38:41;98213.31;;;9.56;100.00
53011;BME280;42803;55.762;38.084;2023-03-24T12:41:23;98211.13;;;9.34;100.00
53011;BME280;42803;55.762;38.084;2023-03-24T12:44:10;98208.81;;;9.53;100.00
53011;BME280;42803;55.762;38.084;2023-03-24T12:46:46;98209.94;;;9.86;100.00
53011;BME280;42803;55.762;38.084;2023-03-24T12:49:50;98219.91;;;9.79;100.00
53011;BME280;42803;55.762;38.084;2023-03-24T12:52:37;98211.03;;;10.05;100.00
53011;BME280;42803;55.762;38.084;2023-03-24T12:55:16;98212.72;;;10.19;100.00
53011;BME280;42803;55.762;38.084;2023-03-24T12:57:46;98222.59;;;9.95;100.00
53011;BME280;42803;55.762;38.084;2023-03-24T13:00:20;98221.44;;;9.75;100.00
53011;BME280;42803;55.762;38.084;2023-03-24T13:02:52;98227.88;;;9.52;100.00
53011;BME280;42803;55.762;38.084;2023-03-24T13:05:29;98239.56;;;9.59;100.00
53011;BME280;42803;55.762;38.084;2023-03-24T13:08:02;98229.94;;;9.72;100.00
53011;BME280;42803;55.762;38.084;2023-03-24T13:10:36;98222.59;;;9.80;100.00
53011;BME280;42803;55.762;38.084;2023-03-24T13:13:11;98222.88;;;9.99;100.00
53011;BME280;42803;55.762;38.084;2023-03-24T13:15:46;98220.19;;;9.83;100.00
53011;BME280;42803;55.762;38.084;2023-03-24T13:18:27;98221.81;;;9.96;99.10
53011;BME280;42803;55.762;38.084;2023-03-24T13:21:01;98224.69;;;10.00;100.00
53011;BME280;42803;55.762;38.084;2023-03-24T13:23:39;98219.91;;;10.23;96.88
53011;BME280;42803;55.762;38.084;2023-03-24T13:26:20;98216.13;;;10.18;94.06
53011;BME280;42803;55.762;38.084;2023-03-24T13:29:03;98221.78;;;10.11;94.56
53011;BME280;42803;55.762;38.084;2023-03-24T13:31:39;98216.97;;;10.32;97.00
53011;BME280;42803;55.762;38.084;2023-03-24T13:34:21;98218.72;;;10.47;97.97
53011;BME280;42803;55.762;38.084;2023-03-24T13:36:54;98223.34;;;9.92;99.64
53011;BME280;42803;55.762;38.084;2023-03-24T13:39:27;98235.13;;;10.00;98.97
53011;BME280;42803;55.762;38.084;2023-03-24T13:42:02;98233.66;;;10.06;95.81
53011;BME280;42803;55.762;38.084;2023-03-24T13:44:36;98230.72;;;9.85;94.30
53011;BME280;42803;55.762;38.084;2023-03-24T13:47:12;98225.03;;;9.92;95.51